Time;durP1;ratioP1;P1;durP2;ratioP2;P2;SDS_P1;SDS_P2;PMS_P1;PMS_P2;Temp;Humidity;BMP_temperature;BMP_pressure;BME280_temperature;BME280_humidity;BME280_pressure;Samples;Min_cycle;Max_cycle;Signal;HPM_P1;HPM_P2
2022/03/30 00:01:10;;;;;;;;;43.25;35.25;;;;;-142.59;100.00;56100.38;5108968;27;50752;-85
2022/03/30 00:03:35;;;;;;;;;38.75;34.50;;;;;-142.59;100.00;56100.38;5093728;27;49782;-78
2022/03/30 00:06:03;;;;;;;;;44.00;34.75;;;;;-142.59;100.00;56100.38;5093909;27;49920;-79
2022/03/30 00:08:28;;;;;;;;;39.25;33.75;;;;;-142.59;100.00;56100.38;5093807;27;49588;-81
2022/03/30 00:10:54;;;;;;;;;43.25;36.00;;;;;-142.59;100.00;56100.38;5091817;27;50717;-81
2022/03/30 00:13:19;;;;;;;;;42.75;37.50;;;;;-142.59;100.00;56100.38;5091982;27;49810;-73
2022/03/30 00:15:44;;;;;;;;;41.00;36.50;;;;;-142.59;100.00;56100.38;5093086;27;49729;-77
2022/03/30 00:18:10;;;;;;;;;35.25;32.50;;;;;-142.59;100.00;56100.38;5093254;27;49652;-81
2022/03/30 00:20:36;;;;;;;;;48.25;36.75;;;;;-142.59;100.00;56100.38;5093211;27;49813;-76
2022/03/30 00:23:01;;;;;;;;;41.00;36.00;;;;;-142.59;100.00;56100.38;5093370;27;49810;-76
2022/03/30 00:25:27;;;;;;;;;45.25;38.00;;;;;-142.59;100.00;56100.38;5096271;27;49983;-79
2022/03/30 00:27:52;;;;;;;;;47.00;38.00;;;;;-142.59;100.00;56100.38;5094001;27;49863;-76
2022/03/30 00:30:20;;;;;;;;;53.25;42.75;;;;;-142.59;100.00;56100.38;5093023;27;50616;-77
2022/03/30 00:32:46;;;;;;;;;47.00;38.25;;;;;-142.59;100.00;56100.38;5093265;27;49781;-73
2022/03/30 00:35:12;;;;;;;;;55.00;46.00;;;;;-142.59;100.00;56100.38;5112742;27;49816;-80
2022/03/30 00:37:38;;;;;;;;;51.00;42.75;;;;;-142.59;100.00;56100.38;5113362;27;49688;-71
2022/03/30 00:40:07;;;;;;;;;53.75;44.00;;;;;-142.59;100.00;56100.38;5092937;27;50391;-69
2022/03/30 00:42:32;;;;;;;;;58.25;45.00;;;;;-142.59;100.00;56100.38;5092727;27;49726;-70
2022/03/30 00:44:58;;;;;;;;;59.75;47.00;;;;;-142.59;100.00;56100.38;5093304;27;50032;-67
2022/03/30 00:47:26;;;;;;;;;53.25;42.75;;;;;-142.59;100.00;56100.38;5093062;27;49550;-79
2022/03/30 00:49:52;;;;;;;;;55.75;44.75;;;;;-142.59;100.00;56100.38;5092576;27;49711;-62
2022/03/30 00:52:20;;;;;;;;;58.25;47.00;;;;;-142.59;100.00;56100.38;5092574;27;49931;-62
2022/03/30 00:54:49;;;;;;;;;53.75;45.00;;;;;-142.59;100.00;56100.38;5092691;27;49781;-66
2022/03/30 00:57:17;;;;;;;;;55.00;44.75;;;;;-142.59;100.00;56100.38;5111006;27;49994;-63
2022/03/30 00:59:43;;;;;;;;;57.50;46.50;;;;;-142.59;100.00;56100.38;5093064;27;50811;-71
2022/03/30 01:02:09;;;;;;;;;53.00;43.25;;;;;-142.59;100.00;56100.38;5092780;27;49668;-63
2022/03/30 01:04:35;;;;;;;;;52.00;43.00;;;;;-142.59;100.00;56100.38;5092724;27;50125;-67
2022/03/30 01:07:01;;;;;;;;;56.25;46.25;;;;;-142.59;100.00;56100.38;5092706;27;49837;-62
2022/03/30 01:09:27;;;;;;;;;58.75;47.75;;;;;-142.59;100.00;56100.38;5092385;27;50519;-67
2022/03/30 01:11:53;;;;;;;;;56.00;45.50;;;;;-142.59;100.00;56100.38;5092291;27;49735;-65
2022/03/30 01:14:19;;;;;;;;;61.75;48.25;;;;;-142.59;100.00;56100.38;5092621;27;49892;-62
2022/03/30 01:16:45;;;;;;;;;66.75;51.25;;;;;-142.59;100.00;56100.38;5092663;27;49976;-62
2022/03/30 01:19:11;;;;;;;;;63.50;51.00;;;;;-142.59;100.00;56100.38;5092196;27;50518;-66
2022/03/30 01:21:39;;;;;;;;;61.00;47.00;;;;;-142.59;100.00;56100.38;5092360;27;49959;-63
2022/03/30 01:24:06;;;;;;;;;63.00;48.50;;;;;-142.59;100.00;56100.38;5092284;27;49705;-63
2022/03/30 01:26:32;;;;;;;;;58.75;48.75;;;;;-142.59;100.00;56100.38;5092429;27;49908;-63
2022/03/30 01:28:58;;;;;;;;;61.50;48.00;;;;;-142.59;100.00;56100.38;5090953;27;49851;-62
2022/03/30 01:34:08;;;;;;;;;59.00;47.25;;;;;-142.59;100.00;56100.38;5092308;27;49827;-78
2022/03/30 01:36:35;;;;;;;;;57.50;43.50;;;;;-142.59;100.00;56100.38;5092687;27;50035;-83
2022/03/30 01:39:02;;;;;;;;;56.00;47.50;;;;;-142.59;100.00;56100.38;5091904;27;49829;-70
2022/03/30 01:41:29;;;;;;;;;62.50;49.75;;;;;-142.59;100.00;56100.38;5092065;27;49934;-68
2022/03/30 01:43:54;;;;;;;;;64.00;51.25;;;;;-142.59;100.00;56100.38;5092009;27;49844;-65
2022/03/30 01:46:20;;;;;;;;;60.25;50.00;;;;;-142.59;100.00;56100.38;5092174;27;49740;-65
2022/03/30 01:48:45;;;;;;;;;63.75;52.00;;;;;-142.59;100.00;56100.38;5091815;27;49893;-73
2022/03/30 01:51:11;;;;;;;;;63.75;50.75;;;;;-142.59;100.00;56100.38;5091855;27;49714;-69
2022/03/30 01:53:36;;;;;;;;;64.50;50.50;;;;;-142.59;100.00;56100.38;5091946;27;49719;-73
2022/03/30 01:56:01;;;;;;;;;69.50;54.50;;;;;-142.59;100.00;56100.38;5092174;27;49878;-68
2022/03/30 01:58:27;;;;;;;;;62.00;50.75;;;;;-142.59;100.00;56100.38;5091664;27;50703;-71
2022/03/30 02:00:52;;;;;;;;;65.75;52.50;;;;;-142.59;100.00;56100.38;5091869;27;49881;-62
2022/03/30 02:03:18;;;;;;;;;62.50;50.75;;;;;-142.59;100.00;56100.38;5094516;27;49714;-62
2022/03/30 02:05:44;;;;;;;;;65.25;50.25;;;;;-142.59;100.00;56100.38;5091834;27;49867;-62
2022/03/30 02:08:09;;;;;;;;;64.25;51.75;;;;;-142.59;100.00;56100.38;5091542;27;50427;-62
2022/03/30 02:10:34;;;;;;;;;64.00;52.75;;;;;-142.59;100.00;56100.38;5091772;27;49978;-62
2022/03/30 02:12:59;;;;;;;;;61.00;50.50;;;;;-142.59;100.00;56100.38;5091762;27;49828;-62
2022/03/30 02:15:25;;;;;;;;;53.25;45.00;;;;;-142.59;100.00;56100.38;5091900;27;49739;-62
2022/03/30 02:17:50;;;;;;;;;61.25;50.50;;;;;-142.59;100.00;56100.38;5091337;27;49813;-62
2022/03/30 02:20:16;;;;;;;;;58.75;47.25;;;;;-142.59;100.00;56100.38;5091415;27;49668;-62
2022/03/30 02:22:42;;;;;;;;;60.75;49.25;;;;;-142.59;100.00;56100.38;5091440;27;49827;-62
2022/03/30 02:25:08;;;;;;;;;58.00;46.25;;;;;-142.59;100.00;56100.38;5091724;27;49985;-62
2022/03/30 02:27:34;;;;;;;;;59.75;49.50;;;;;-142.59;100.00;56100.38;5091182;27;50157;-62
2022/03/30 02:29:59;;;;;;;;;66.50;52.50;;;;;-142.59;100.00;56100.38;5090190;27;49836;-62
2022/03/30 02:32:24;;;;;;;;;64.50;51.25;;;;;-142.59;100.00;56100.38;5091476;27;49742;-62
2022/03/30 02:34:50;;;;;;;;;60.75;50.00;;;;;-142.59;100.00;56100.38;5091704;27;49854;-77
2022/03/30 02:37:17;;;;;;;;;62.50;50.25;;;;;-142.59;100.00;56100.38;5091181;27;49741;-68
2022/03/30 02:39:42;;;;;;;;;61.25;51.25;;;;;-142.59;100.00;56100.38;5090839;27;50052;-64
2022/03/30 02:42:08;;;;;;;;;63.25;51.25;;;;;-142.59;100.00;56100.38;5091414;27;49740;-69
2022/03/30 02:44:35;;;;;;;;;63.25;50.00;;;;;-142.59;100.00;56100.38;5091280;27;49872;-72
2022/03/30 02:47:03;;;;;;;;;60.25;48.25;;;;;-142.59;100.00;56100.38;5090931;27;50609;-66
2022/03/30 02:49:28;;;;;;;;;62.50;50.25;;;;;-142.59;100.00;56100.38;5091296;27;49721;-69
2022/03/30 02:51:54;;;;;;;;;66.25;50.75;;;;;-142.59;100.00;56100.38;5090921;27;49791;-74
2022/03/30 02:54:20;;;;;;;;;66.00;50.25;;;;;-142.59;100.00;56100.38;5091062;27;50031;-68
2022/03/30 02:56:46;;;;;;;;;61.25;50.00;;;;;-142.59;100.00;56100.38;5105879;27;50530;-77
2022/03/30 02:59:11;;;;;;;;;57.25;46.25;;;;;-142.59;100.00;56100.38;5110726;27;49802;-65
2022/03/30 03:01:37;;;;;;;;;61.00;48.75;;;;;-142.59;100.00;56100.38;5110744;27;49808;-73
2022/03/30 03:04:02;;;;;;;;;63.75;50.75;;;;;-142.59;100.00;56100.38;5110955;27;49940;-64
2022/03/30 03:06:28;;;;;;;;;60.25;50.50;;;;;-142.59;100.00;56100.38;5110665;27;49840;-66
2022/03/30 03:08:53;;;;;;;;;62.50;50.00;;;;;-142.59;100.00;56100.38;5110580;27;49764;-69
2022/03/30 03:11:19;;;;;;;;;62.25;48.75;;;;;-142.59;100.00;56100.38;5110840;27;50360;-69
2022/03/30 03:13:44;;;;;;;;;53.25;43.00;;;;;-142.59;100.00;56100.38;5110763;27;49910;-80
2022/03/30 03:16:12;;;;;;;;;65.00;51.50;;;;;-142.59;100.00;56100.38;5110159;27;49838;-62
2022/03/30 03:18:38;;;;;;;;;60.25;49.75;;;;;-142.59;100.00;56100.38;5110180;27;49825;-63
2022/03/30 03:21:04;;;;;;;;;66.75;52.50;;;;;-142.59;100.00;56100.38;5110490;27;50072;-73
2022/03/30 03:23:29;;;;;;;;;63.25;50.00;;;;;-142.59;100.00;56100.38;5110678;27;49760;-69
2022/03/30 03:25:54;;;;;;;;;62.75;50.50;;;;;-142.59;100.00;56100.38;5110316;27;49777;-68
2022/03/30 03:28:20;;;;;;;;;62.50;50.25;;;;;-142.59;100.00;56100.38;5110257;27;50057;-70
2022/03/30 03:30:45;;;;;;;;;63.75;51.75;;;;;-142.59;100.00;56100.38;5110278;27;49731;-68
2022/03/30 03:33:11;;;;;;;;;67.00;51.75;;;;;-142.59;100.00;56100.38;5110370;27;49956;-63
2022/03/30 03:35:37;;;;;;;;;68.25;53.50;;;;;-142.59;100.00;56100.38;5109970;27;50342;-81
2022/03/30 03:38:03;;;;;;;;;63.75;50.25;;;;;-142.59;100.00;56100.38;5110141;27;49976;-67
2022/03/30 03:40:30;;;;;;;;;67.50;54.75;;;;;-142.59;100.00;56100.38;5110489;27;49892;-63
2022/03/30 03:42:57;;;;;;;;;60.25;50.25;;;;;-142.59;100.00;56100.38;5110287;27;50208;-62
2022/03/30 03:45:23;;;;;;;;;59.25;50.00;;;;;-142.59;100.00;56100.38;5109919;27;50230;-62
2022/03/30 03:47:49;;;;;;;;;67.25;52.00;;;;;-142.59;100.00;56100.38;5094240;27;50006;-66
2022/03/30 03:50:15;;;;;;;;;66.25;51.75;;;;;-142.59;100.00;56100.38;5091315;27;50370;-63
2022/03/30 03:52:40;;;;;;;;;62.75;50.00;;;;;-142.59;100.00;56100.38;5094905;27;49604;-62
2022/03/30 03:55:07;;;;;;;;;63.00;50.25;;;;;-142.59;100.00;56100.38;5093492;27;49842;-64
2022/03/30 03:57:33;;;;;;;;;62.75;49.00;;;;;-142.59;100.00;56100.38;5093598;27;49835;-62
2022/03/30 03:59:59;;;;;;;;;71.50;54.75;;;;;-142.59;100.00;56100.38;5093689;27;49874;-66
2022/03/30 04:02:24;;;;;;;;;66.25;52.25;;;;;-142.59;100.00;56100.38;5093954;27;49638;-72
2022/03/30 04:04:50;;;;;;;;;67.25;52.50;;;;;-142.59;100.00;56100.38;5093597;27;50722;-63
2022/03/30 04:07:15;;;;;;;;;64.00;51.00;;;;;-142.59;100.00;56100.38;5093030;27;49893;-70
2022/03/30 04:09:40;;;;;;;;;73.00;55.00;;;;;-142.59;100.00;56100.38;5093523;27;49736;-62
2022/03/30 04:12:07;;;;;;;;;67.00;52.50;;;;;-142.59;100.00;56100.38;5093714;27;49896;-62
2022/03/30 04:14:32;;;;;;;;;64.75;51.75;;;;;-142.59;100.00;56100.38;5093309;27;49662;-63
2022/03/30 04:16:57;;;;;;;;;64.25;52.25;;;;;-142.59;100.00;56100.38;5093379;27;49654;-62
2022/03/30 04:19:23;;;;;;;;;68.00;52.00;;;;;-142.59;100.00;56100.38;5093546;27;49934;-70
2022/03/30 04:21:48;;;;;;;;;65.75;52.00;;;;;-142.59;100.00;56100.38;5093932;27;49896;-63
2022/03/30 04:24:13;;;;;;;;;68.00;53.25;;;;;-142.59;100.00;56100.38;5093213;27;49658;-71
2022/03/30 04:26:39;;;;;;;;;67.50;53.75;;;;;-142.59;100.00;56100.38;5093306;27;50261;-70
2022/03/30 04:29:05;;;;;;;;;68.00;55.00;;;;;-142.59;100.00;56100.38;5093184;27;49881;-66
2022/03/30 04:31:31;;;;;;;;;65.00;51.50;;;;;-142.59;100.00;56100.38;5093427;27;49826;-65
2022/03/30 04:33:57;;;;;;;;;69.75;55.00;;;;;-142.59;100.00;56100.38;5092992;27;50519;-63
2022/03/30 04:36:22;;;;;;;;;67.00;52.75;;;;;-142.59;100.00;56100.38;5093280;27;49703;-65
2022/03/30 04:38:48;;;;;;;;;64.50;51.00;;;;;-142.59;100.00;56100.38;5093182;27;49853;-63
2022/03/30 04:41:13;;;;;;;;;68.50;53.75;;;;;-142.59;100.00;56100.38;5093141;27;49794;-63
2022/03/30 04:43:39;;;;;;;;;67.50;53.50;;;;;-142.59;100.00;56100.38;5092806;27;49833;-62
2022/03/30 04:46:05;;;;;;;;;69.50;54.00;;;;;-142.59;100.00;56100.38;5092803;27;49900;-63
2022/03/30 04:48:31;;;;;;;;;64.50;52.25;;;;;-142.59;100.00;56100.38;5093074;27;49885;-63
2022/03/30 04:50:57;;;;;;;;;65.25;50.75;;;;;-142.59;100.00;56100.38;5093008;27;49625;-65
2022/03/30 04:53:22;;;;;;;;;67.00;53.50;;;;;-142.59;100.00;56100.38;5092660;27;49782;-65
2022/03/30 04:55:48;;;;;;;;;68.75;56.50;;;;;-142.59;100.00;56100.38;5092833;27;49767;-62
2022/03/30 04:58:14;;;;;;;;;64.25;51.25;;;;;-142.59;100.00;56100.38;5092764;27;49780;-63
2022/03/30 05:00:41;;;;;;;;;72.50;54.00;;;;;-142.59;100.00;56100.38;5093025;27;49723;-64
2022/03/30 05:03:06;;;;;;;;;66.00;52.00;;;;;-142.59;100.00;56100.38;5092315;27;50464;-63
2022/03/30 05:05:32;;;;;;;;;66.50;52.50;;;;;-142.59;100.00;56100.38;5092750;27;49651;-63
2022/03/30 05:07:57;;;;;;;;;68.00;51.50;;;;;-142.59;100.00;56100.38;5092479;27;49968;-63
2022/03/30 05:10:26;;;;;;;;;63.75;52.00;;;;;-142.59;100.00;56100.38;5092840;27;50396;-63
2022/03/30 05:12:51;;;;;;;;;71.75;54.50;;;;;-142.59;100.00;56100.38;5092436;27;49584;-64
2022/03/30 05:15:17;;;;;;;;;62.00;51.75;;;;;-142.59;100.00;56100.38;5092642;27;49802;-63
2022/03/30 05:17:44;;;;;;;;;69.25;55.75;;;;;-142.59;100.00;56100.38;5092530;27;49622;-63
2022/03/30 05:20:12;;;;;;;;;70.50;54.25;;;;;-142.59;100.00;56100.38;5092635;27;49911;-66
2022/03/30 05:22:37;;;;;;;;;71.00;55.75;;;;;-142.59;100.00;56100.38;5092033;27;50145;-64
2022/03/30 05:25:03;;;;;;;;;70.25;55.00;;;;;-142.59;100.00;56100.38;5092364;27;49765;-65
2022/03/30 05:27:28;;;;;;;;;69.50;54.00;;;;;-142.59;100.00;56100.38;5092289;27;49726;-62
2022/03/30 05:29:54;;;;;;;;;67.00;54.00;;;;;-142.59;100.00;56100.38;5092636;27;50044;-63
2022/03/30 05:32:19;;;;;;;;;67.25;52.75;;;;;-142.59;100.00;56100.38;5092209;27;51143;-63
2022/03/30 05:34:45;;;;;;;;;68.50;51.75;;;;;-142.59;100.00;56100.38;5092311;27;49812;-62
2022/03/30 05:37:10;;;;;;;;;69.25;55.00;;;;;-142.59;100.00;56100.38;5092310;27;49908;-69
2022/03/30 05:39:39;;;;;;;;;72.25;55.25;;;;;-142.59;100.00;56100.38;5092096;27;49954;-62
2022/03/30 05:42:05;;;;;;;;;72.25;55.75;;;;;-142.59;100.00;56100.38;5091906;27;49966;-63
2022/03/30 05:44:31;;;;;;;;;70.00;56.00;;;;;-142.59;100.00;56100.38;5095788;27;49730;-63
2022/03/30 05:46:57;;;;;;;;;70.25;55.75;;;;;-142.59;100.00;56100.38;5093197;27;49884;-61
2022/03/30 05:49:22;;;;;;;;;67.75;53.75;;;;;-142.59;100.00;56100.38;5092451;27;50230;-65
2022/03/30 05:51:48;;;;;;;;;73.50;59.00;;;;;-142.59;100.00;56100.38;5091929;27;49994;-63
2022/03/30 05:54:13;;;;;;;;;76.50;57.00;;;;;-142.59;100.00;56100.38;5093808;27;49924;-62
2022/03/30 05:59:22;;;;;;;;;77.00;59.00;;;;;-142.59;100.00;56100.38;5091710;27;49744;-66
2022/03/30 06:01:48;;;;;;;;;70.25;56.25;;;;;-142.59;100.00;56100.38;5090098;27;50577;-64
2022/03/30 06:04:13;;;;;;;;;74.50;60.50;;;;;-142.59;100.00;56100.38;5091230;27;49774;-63
2022/03/30 06:06:38;;;;;;;;;71.75;56.50;;;;;-142.59;100.00;56100.38;5090432;27;49716;-62
2022/03/30 06:09:07;;;;;;;;;74.50;58.25;;;;;-142.59;100.00;56100.38;5092020;27;49926;-63
2022/03/30 06:11:33;;;;;;;;;72.67;57.67;;;;;-142.59;100.00;56100.38;5091587;27;49693;-62
2022/03/30 06:13:58;;;;;;;;;75.33;59.00;;;;;-142.59;100.00;56100.38;5096689;27;49645;-62
2022/03/30 06:16:25;;;;;;;;;75.75;56.75;;;;;-142.59;100.00;56100.38;5091644;27;49682;-61
2022/03/30 06:18:51;;;;;;;;;73.50;57.00;;;;;-142.59;100.00;56100.38;5091437;27;49665;-66
2022/03/30 06:21:16;;;;;;;;;70.25;56.25;;;;;-142.59;100.00;56100.38;5091441;27;50566;-61
2022/03/30 06:23:42;;;;;;;;;73.25;55.00;;;;;-142.59;100.00;56100.38;5094761;27;49989;-66
2022/03/30 06:26:08;;;;;;;;;73.75;58.75;;;;;-142.59;100.00;56100.38;5098094;27;50167;-64
2022/03/30 06:28:34;;;;;;;;;73.67;57.33;;;;;-142.59;100.00;56100.38;5097773;27;50087;-64
2022/03/30 06:31:00;;;;;;;;;76.25;57.50;;;;;-142.59;100.00;56100.38;5091532;27;49945;-63
2022/03/30 06:33:25;;;;;;;;;73.00;56.75;;;;;-142.59;100.00;56100.38;5091403;27;49965;-64
2022/03/30 06:35:51;;;;;;;;;72.00;56.50;;;;;-142.59;100.00;56100.38;5095502;27;50055;-64
2022/03/30 06:38:17;;;;;;;;;68.50;54.25;;;;;-142.59;100.00;56100.38;5109992;27;49909;-64
2022/03/30 06:40:47;;;;;;;;;72.50;58.00;;;;;-142.59;100.00;56100.38;5092878;27;52909;-65
2022/03/30 06:43:15;;;;;;;;;66.25;51.50;;;;;-142.59;100.00;56100.38;5104036;27;49894;-64
2022/03/30 06:45:41;;;;;;;;;68.00;53.25;;;;;-142.59;100.00;56100.38;5095308;27;49925;-64
2022/03/30 06:48:07;;;;;;;;;68.25;56.75;;;;;-142.59;100.00;56100.38;5103811;27;49798;-64
2022/03/30 06:50:33;;;;;;;;;72.75;57.25;;;;;-142.59;100.00;56100.38;5098731;27;50883;-64
2022/03/30 06:53:00;;;;;;;;;72.00;55.75;;;;;-142.59;100.00;56100.38;5098606;27;50063;-64
2022/03/30 06:55:26;;;;;;;;;76.75;57.50;;;;;-142.59;100.00;56100.38;5103403;27;49747;-64
2022/03/30 06:57:51;;;;;;;;;76.50;58.25;;;;;-142.59;100.00;56100.38;5104032;27;49696;-65
2022/03/30 07:00:17;;;;;;;;;70.00;55.25;;;;;-142.59;100.00;56100.38;5103507;27;50022;-65
2022/03/30 07:02:43;;;;;;;;;69.00;55.67;;;;;-142.59;100.00;56100.38;5103477;27;49706;-63
2022/03/30 07:05:08;;;;;;;;;72.75;55.75;;;;;-142.59;100.00;56100.38;5101458;27;49768;-64
2022/03/30 07:10:19;;;;;;;;;76.75;60.50;;;;;-142.59;100.00;56100.38;5111456;27;49691;-64
2022/03/30 07:12:46;;;;;;;;;73.25;59.00;;;;;-142.59;100.00;56100.38;5120167;27;49360;-64
2022/03/30 07:15:13;;;;;;;;;70.00;55.25;;;;;-142.59;100.00;56100.38;5115069;27;49308;-64
2022/03/30 07:17:49;;;;;;;;;74.75;58.00;;;;;-142.59;100.00;56100.38;5111955;27;49499;-64
2022/03/30 07:20:15;;;;;;;;;74.50;57.50;;;;;-142.59;100.00;56100.38;5111162;27;49975;-67
2022/03/30 07:22:42;;;;;;;;;72.75;55.25;;;;;-142.59;100.00;56100.38;5111773;27;49626;-65
2022/03/30 07:25:09;;;;;;;;;76.75;59.25;;;;;-142.59;100.00;56100.38;5104351;27;49706;-66
2022/03/30 07:27:37;;;;;;;;;70.00;55.50;;;;;-142.59;100.00;56100.38;5106788;27;50163;-65
2022/03/30 07:30:04;;;;;;;;;73.75;58.25;;;;;-142.59;100.00;56100.38;5110884;27;50368;-66
2022/03/30 07:32:29;;;;;;;;;74.00;55.75;;;;;-142.59;100.00;56100.38;5099497;27;49761;-65
2022/03/30 07:34:54;;;;;;;;;67.75;54.75;;;;;-142.59;100.00;56100.38;5100765;27;49490;-67
2022/03/30 07:37:20;;;;;;;;;78.00;57.75;;;;;-142.59;100.00;56100.38;5113277;27;49809;-66
2022/03/30 07:39:45;;;;;;;;;73.50;56.25;;;;;-142.59;100.00;56100.38;5097663;27;50419;-65
2022/03/30 07:42:11;;;;;;;;;71.00;57.25;;;;;-142.59;100.00;56100.38;5109192;27;49860;-64
2022/03/30 07:44:36;;;;;;;;;72.25;57.75;;;;;-142.59;100.00;56100.38;5108634;27;50004;-65
2022/03/30 07:47:03;;;;;;;;;73.25;56.75;;;;;-142.59;100.00;56100.38;5113433;27;49975;-65
2022/03/30 07:49:28;;;;;;;;;76.75;57.25;;;;;-142.59;100.00;56100.38;5118815;27;50072;-63
2022/03/30 07:51:53;;;;;;;;;73.50;55.75;;;;;-142.59;100.00;56100.38;5117930;27;49937;-66
2022/03/30 07:54:19;;;;;;;;;75.00;59.00;;;;;-142.59;100.00;56100.38;5121538;27;49745;-65
2022/03/30 07:56:44;;;;;;;;;75.75;58.50;;;;;-142.59;100.00;56100.38;5116284;27;49953;-65
2022/03/30 07:59:09;;;;;;;;;79.25;60.25;;;;;-142.59;100.00;56100.38;5122564;27;50640;-67
2022/03/30 08:01:35;;;;;;;;;73.50;57.50;;;;;-142.59;100.00;56100.38;5118604;27;49649;-66
2022/03/30 08:04:00;;;;;;;;;78.50;58.00;;;;;-142.59;100.00;56100.38;5116355;27;51056;-67
2022/03/30 08:06:26;;;;;;;;;70.50;57.00;;;;;-142.59;100.00;56100.38;5114249;27;49816;-66
2022/03/30 08:08:52;;;;;;;;;77.00;60.00;;;;;-142.59;100.00;56100.38;5116779;27;50423;-66
2022/03/30 08:11:17;;;;;;;;;78.50;58.50;;;;;-142.59;100.00;56100.38;5106538;27;49959;-66
2022/03/30 08:13:43;;;;;;;;;71.00;54.75;;;;;-142.59;100.00;56100.38;5103625;27;50331;-65
2022/03/30 08:16:08;;;;;;;;;75.50;58.25;;;;;-142.59;100.00;56100.38;5115128;27;49730;-66
2022/03/30 08:18:33;;;;;;;;;72.50;57.50;;;;;-142.59;100.00;56100.38;5115176;27;50947;-68
2022/03/30 08:23:42;;;;;;;;;76.75;58.00;;;;;-142.59;100.00;56100.38;5114106;27;49794;-70
2022/03/30 08:26:08;;;;;;;;;80.25;62.50;;;;;-142.59;100.00;56100.38;5112708;27;49943;-64
2022/03/30 08:28:33;;;;;;;;;68.25;53.00;;;;;-142.59;100.00;56100.38;5111544;27;49642;-65
2022/03/30 08:30:59;;;;;;;;;70.50;56.25;;;;;-142.59;100.00;56100.38;5105603;27;49774;-65
2022/03/30 08:33:26;;;;;;;;;74.00;57.25;;;;;-142.59;100.00;56100.38;5112044;27;49791;-63
2022/03/30 08:35:53;;;;;;;;;73.50;57.00;;;;;-142.59;100.00;56100.38;5093497;27;49594;-63
2022/03/30 08:38:19;;;;;;;;;81.00;60.25;;;;;-142.59;100.00;56100.38;5092232;27;49845;-64
2022/03/30 08:40:45;;;;;;;;;81.50;61.50;;;;;-142.59;100.00;56100.38;5093247;27;49645;-64
2022/03/30 08:43:10;;;;;;;;;80.67;60.33;;;;;-142.59;100.00;56100.38;5099230;27;49772;-64
2022/03/30 08:45:36;;;;;;;;;76.50;58.25;;;;;-142.59;100.00;56100.38;5091156;27;49990;-70
2022/03/30 08:48:02;;;;;;;;;81.67;59.33;;;;;-142.59;100.00;56100.38;5091015;27;50658;-64
2022/03/30 08:50:28;;;;;;;;;72.50;57.25;;;;;-142.59;100.00;56100.38;5091603;27;49833;-70
2022/03/30 08:52:55;;;;;;;;;77.25;53.25;;;;;-142.59;100.00;56100.38;5091914;27;49797;-67
2022/03/30 08:55:22;;;;;;;;;71.50;56.75;;;;;-142.59;100.00;56100.38;5092227;27;49988;-66
2022/03/30 08:57:47;;;;;;;;;79.00;59.75;;;;;-142.59;100.00;56100.38;5091710;27;50986;-64
2022/03/30 09:00:19;;;;;;;;;77.25;60.25;;;;;-142.59;100.00;56100.38;5092199;27;49762;-67
2022/03/30 09:03:00;;;;;;;;;78.25;59.50;;;;;-142.59;100.00;56100.38;5092647;27;49760;-65
2022/03/30 09:05:27;;;;;;;;;78.75;58.75;;;;;-142.59;100.00;56100.38;5101031;27;50121;-65
2022/03/30 09:08:07;;;;;;;;;78.50;59.25;;;;;-142.59;100.00;56100.38;5105793;27;49968;-67
2022/03/30 09:10:35;;;;;;;;;72.25;58.25;;;;;-142.59;100.00;56100.38;5102360;27;49765;-65
2022/03/30 09:13:02;;;;;;;;;64.25;51.25;;;;;-142.59;100.00;56100.38;5102173;27;49728;-65
2022/03/30 09:15:28;;;;;;;;;79.25;57.75;;;;;-142.59;100.00;56100.38;5095927;27;49842;-65
2022/03/30 09:18:03;;;;;;;;;71.00;56.00;;;;;-142.59;100.00;56100.38;5094985;27;50832;-70
2022/03/30 09:20:29;;;;;;;;;76.75;58.75;;;;;-142.59;100.00;56100.38;5092274;27;49836;-67
2022/03/30 09:22:56;;;;;;;;;79.75;61.00;;;;;-142.59;100.00;56100.38;5093183;27;49850;-65
2022/03/30 09:25:24;;;;;;;;;75.25;59.00;;;;;-142.59;100.00;56100.38;5101563;27;49566;-64
2022/03/30 09:27:53;;;;;;;;;74.75;59.00;;;;;-142.59;100.00;56100.38;5095826;27;51620;-66
2022/03/30 09:30:19;;;;;;;;;76.50;59.50;;;;;-142.59;100.00;56100.38;5097828;27;49923;-64
2022/03/30 09:32:46;;;;;;;;;68.00;50.50;;;;;-142.59;100.00;56100.38;5092075;27;49755;-64
2022/03/30 09:35:20;;;;;;;;;71.25;52.75;;;;;-142.59;100.00;56100.38;5090841;27;49949;-67
2022/03/30 09:38:06;;;;;;;;;74.25;57.75;;;;;-142.59;100.00;56100.38;5092016;27;50890;-72
2022/03/30 09:40:47;;;;;;;;;73.50;57.50;;;;;-142.59;100.00;56100.38;5092214;27;49934;-65
2022/03/30 09:43:30;;;;;;;;;78.50;57.00;;;;;-142.59;100.00;56100.38;5093127;27;49962;-65
2022/03/30 09:46:09;;;;;;;;;74.75;58.00;;;;;-142.59;100.00;56100.38;5107713;27;50059;-61
2022/03/30 09:48:39;;;;;;;;;68.50;55.75;;;;;-142.59;100.00;56100.38;5111072;27;50581;-61
2022/03/30 09:51:06;;;;;;;;;71.25;54.00;;;;;-142.59;100.00;56100.38;5111360;27;49802;-68
2022/03/30 09:53:33;;;;;;;;;75.00;57.25;;;;;-142.59;100.00;56100.38;5111397;27;50432;-66
2022/03/30 09:56:04;;;;;;;;;74.50;59.00;;;;;-142.59;100.00;56100.38;5111661;27;50378;-63
2022/03/30 09:58:37;;;;;;;;;74.00;57.00;;;;;-142.59;100.00;56100.38;5111479;27;50813;-66
2022/03/30 10:01:10;;;;;;;;;72.50;55.75;;;;;-142.59;100.00;56100.38;5114969;27;49903;-61
2022/03/30 10:03:44;;;;;;;;;72.50;54.75;;;;;-142.59;100.00;56100.38;5104633;27;49953;-58
2022/03/30 10:06:16;;;;;;;;;74.25;57.00;;;;;-142.59;100.00;56100.38;5096346;27;49950;-58
2022/03/30 10:08:44;;;;;;;;;76.25;58.50;;;;;-142.59;100.00;56100.38;5096968;27;51014;-64
2022/03/30 10:11:12;;;;;;;;;77.00;59.50;;;;;-142.59;100.00;56100.38;5089996;27;49836;-67
2022/03/30 10:13:39;;;;;;;;;77.50;61.00;;;;;-142.59;100.00;56100.38;5110930;27;49817;-58
2022/03/30 10:16:08;;;;;;;;;72.25;55.75;;;;;-142.59;100.00;56100.38;5093749;27;49987;-67
2022/03/30 10:18:35;;;;;;;;;69.75;56.50;;;;;-142.59;100.00;56100.38;5091637;27;50858;-59
2022/03/30 10:21:16;;;;;;;;;71.50;56.25;;;;;-142.59;100.00;56100.38;5100606;27;49844;-58
2022/03/30 10:23:41;;;;;;;;;74.00;56.25;;;;;-142.59;100.00;56100.38;5101863;27;49587;-58
2022/03/30 10:26:34;;;;;;;;;72.00;54.75;;;;;-142.59;100.00;56100.38;5098624;27;49997;-60
2022/03/30 10:29:12;;;;;;;;;68.00;54.25;;;;;-142.59;100.00;56100.38;5108058;27;50710;-71
2022/03/30 10:31:38;;;;;;;;;67.50;52.75;;;;;-142.59;100.00;56100.38;5098443;27;49863;-60
2022/03/30 10:34:23;;;;;;;;;64.00;50.50;;;;;-142.59;100.00;56100.38;5098361;27;50029;-63
2022/03/30 10:37:07;;;;;;;;;70.25;56.00;;;;;-142.59;100.00;56100.38;5091474;27;49764;-63
2022/03/30 10:39:33;;;;;;;;;71.25;55.25;;;;;-142.59;100.00;56100.38;5092707;27;49766;-66
2022/03/30 10:42:09;;;;;;;;;64.50;52.75;;;;;-142.59;100.00;56100.38;5092382;27;49821;-72
2022/03/30 10:44:41;;;;;;;;;65.00;53.00;;;;;-142.59;100.00;56100.38;5094972;27;49816;-67
2022/03/30 10:47:23;;;;;;;;;65.75;51.50;;;;;-142.59;100.00;56100.38;5106540;27;49732;-67
2022/03/30 10:50:00;;;;;;;;;64.50;49.00;;;;;-142.59;100.00;56100.38;5093618;27;50086;-62
2022/03/30 10:52:28;;;;;;;;;68.50;54.00;;;;;-142.59;100.00;56100.38;5109467;27;49852;-63
2022/03/30 10:55:27;;;;;;;;;67.00;51.50;;;;;-142.59;100.00;56100.38;5093431;27;49820;-66
2022/03/30 10:57:57;;;;;;;;;67.50;53.00;;;;;-142.59;100.00;56100.38;5081091;27;50019;-64
2022/03/30 11:00:24;;;;;;;;;66.00;52.00;;;;;-142.59;100.00;56100.38;5111111;27;49829;-67
2022/03/30 11:02:50;;;;;;;;;59.75;49.00;;;;;-142.59;100.00;56100.38;5112168;27;49657;-64
2022/03/30 11:05:26;;;;;;;;;65.00;52.00;;;;;-142.59;100.00;56100.38;5101250;27;49933;-67